Aleppo International Airport


Codes: OSAP/ALP
Name: Aleppo International Airport
City: Aleppo
Country: Syria
Elevation: 1276 ft.
Website:
Wikipedia:

Photos at Aleppo International Airport


   Photos courtesy of SpottingLog. You can add your own sightings and photos by signing up for a free trial today.



No photos found.

Weather at Aleppo International Airport


Time (UTC)DescriptionTempratureWindCloud coverageVisibilityPressureHumidity
21-Jun-2024 15:00Clear Sky38°C18 mph, W0%10000m1002hPa27%
21-Jun-2024 18:00Clear Sky31°C18 mph, W0%10000m1003hPa46%
21-Jun-2024 21:00Clear Sky24°C16 mph, W0%10000m1004hPa76%
22-Jun-2024 00:00Clear Sky23°C13 mph, W0%10000m1003hPa83%
22-Jun-2024 03:00Clear Sky22°C11 mph, W0%10000m1003hPa86%
22-Jun-2024 06:00Clear Sky28°C13 mph, W0%10000m1003hPa58%
22-Jun-2024 09:00Clear Sky33°C13 mph, W0%10000m1002hPa38%
22-Jun-2024 12:00Clear Sky35°C18 mph, W0%10000m1000hPa31%
22-Jun-2024 15:00Clear Sky33°C20 mph, W0%10000m1000hPa30%
22-Jun-2024 18:00Clear Sky27°C13 mph, W0%10000m1002hPa43%
22-Jun-2024 21:00Clear Sky23°C13 mph, W0%10000m1002hPa68%
23-Jun-2024 00:00Clear Sky22°C13 mph, W0%10000m1002hPa77%
23-Jun-2024 03:00Clear Sky21°C11 mph, W0%10000m1002hPa82%
23-Jun-2024 06:00Clear Sky26°C16 mph, W0%10000m1003hPa59%
23-Jun-2024 09:00Clear Sky32°C13 mph, W0%10000m1002hPa40%
23-Jun-2024 12:00Clear Sky34°C16 mph, W0%10000m1001hPa29%
23-Jun-2024 15:00Clear Sky32°C25 mph, W10%10000m1000hPa35%
23-Jun-2024 18:00Light Rain25°C20 mph, W6%10000m1004hPa60%
23-Jun-2024 21:00Clear Sky23°C13 mph, W0%10000m1003hPa73%
24-Jun-2024 00:00Clear Sky23°C16 mph, W0%10000m1003hPa83%
24-Jun-2024 03:00Clear Sky23°C13 mph, W2%10000m1004hPa82%
24-Jun-2024 06:00Clear Sky28°C16 mph, NW1%10000m1005hPa57%
24-Jun-2024 09:00Clear Sky34°C13 mph, NW0%10000m1004hPa31%
24-Jun-2024 12:00Clear Sky38°C18 mph, W0%10000m1002hPa22%
24-Jun-2024 15:00Clear Sky34°C20 mph, W0%10000m1003hPa37%
24-Jun-2024 18:00Clear Sky27°C16 mph, W0%10000m1004hPa60%
24-Jun-2024 21:00Clear Sky24°C16 mph, W4%10000m1005hPa75%
25-Jun-2024 00:00Clear Sky23°C13 mph, W3%10000m1004hPa81%
25-Jun-2024 03:00Clear Sky23°C13 mph, W1%10000m1004hPa86%
25-Jun-2024 06:00Clear Sky29°C18 mph, W1%10000m1004hPa56%
25-Jun-2024 09:00Clear Sky36°C18 mph, W0%10000m1004hPa33%
25-Jun-2024 12:00Clear Sky38°C20 mph, W0%10000m1002hPa25%
25-Jun-2024 15:00Clear Sky35°C20 mph, W0%10000m1001hPa29%
25-Jun-2024 18:00Clear Sky28°C18 mph, W0%10000m1003hPa56%
25-Jun-2024 21:00Clear Sky25°C13 mph, NW0%10000m1003hPa65%
26-Jun-2024 00:00Clear Sky23°C11 mph, W0%10000m1003hPa79%
26-Jun-2024 03:00Clear Sky23°C11 mph, W0%10000m1004hPa83%
26-Jun-2024 06:00Clear Sky30°C16 mph, NW0%10000m1003hPa47%
26-Jun-2024 09:00Clear Sky38°C16 mph, NW0%10000m1002hPa22%
26-Jun-2024 12:00Clear Sky41°C20 mph, W0%10000m1000hPa15%